Aérodrome :
LOGIN :

S'inscrire | Disclaimer

   EN    FR    IT 

 










Légende :    VFR   VFR Marginal   IFR   IFR Intensif   IFR Très Intensif
Visi : 
Plafond : 
>= 8 km
>= 3000ft
5 à 8 km
1000 à 3000 ft
1500m à 5 km
500 à 1000 ft
800 à 1500m
200 à 500 ft
< 800m
< 200 ft
Symboles :   Orages  Brouillard  Fortes neiges  Fortes précipitations  Vent > 20 kt
SIGMETs :   Divers  Orages  Givrage  Turbulence  Onde Orograph.  Cendres Volcan.






- Altitude de l'aérodrome : 468 ft
- Code IATA : GRO


LEGE - Girona Costa Brava

DERNIER METAR :
  • 281300Z 18012KT 9999 FEW022 SCT043 15/11 Q1020

METARs EXPIRÉS :
  • 281230Z 18009KT 9999 SCT025 16/11 Q1021
  • 281200Z 19006KT 130V240 9999 SCT024 16/11 Q1021
  • 281130Z 16006KT 080V200 9999 BKN024 15/10 Q1022
  • 281100Z 18006KT 120V230 9999 SCT024 14/09 Q1022
  • 281030Z 16005KT 090V230 CAVOK 14/09 Q1022

TAF TAF LEGE
Valide du 28 à 12h jusqu'au 29 à 12h UTC


281100Z 2812/2912 19012KT 9999 FEW030 TX20/2814Z TN08/2906Z
PROB40
TEMPO 2822/2903 VRB04KT 4000 BR



MET'MAP, la Météo Aéronautique d'un coup d'oeil ! - Copyright ORBIFLY Décembre 2007 - Disclaimer

ORBIFLY MET'MAP TEAM :

Programmation & Développement : Alexandra Zaïnal
Sur une idée originale de : Baudouin d'Aumeries
Assistance à la programmation : Marc-Olivier Méhu
Soutien technique & logistique : Manuel Goepfert

Contact : metmap@orbifly.com




SOURCES & CREDITS :

   NOAA